Latest Weather Observations for Low Isles

IDQ60801

Issued at 6:02 pm EST Saturday 1 August 2015 (issued every 30 minutes, with the page automatically refreshed every 10 minutes)

About weather observations | Map of weather stations | Latest weather observations for QLD | Other Formats
Station Details ID: 031037 Name: LOW ISLES LIGHTHOUSE Lat: -16.38 Lon: 145.56 Height: 2.9 m
Data from the previous 72 hours. | See also: Recent months at Low Isles
Date/Time
EST
Temp
°C
App
Temp
°C
Dew
Point
Rel
Hum
%
Delta-T
°C
Wind Press
QNH
hPa
Press
MSL
hPa
Rain
since 9 am
mm
Dir
 
Spd
km/h
Gust
km/h
Spd
kts
Gust
kts
01/06:00pm 23.0 18.9 19.2 79 2.4 SE 39 46 21 25 1016.9 1016.8 0.0
01/05:30pm 23.1 19.4 19.1 78 2.5 SE 37 43 20 23 1016.7 - 0.0
01/05:00pm 23.2 18.8 18.5 75 3.0 SE 39 46 21 25 1016.6 - 0.0
01/04:30pm 23.7 19.5 19.0 75 3.0 SE 39 46 21 25 1016.6 - 0.0
01/04:00pm 24.1 19.7 18.5 71 3.5 SE 39 46 21 25 1016.6 - 0.0
01/03:30pm 24.4 20.3 18.3 69 3.8 SE 37 46 20 25 1016.7 - 0.0
01/03:00pm 24.8 20.8 18.5 68 4.0 SE 37 44 20 24 1016.7 1016.6 0.0
01/02:30pm 25.1 20.9 18.8 68 4.0 SE 39 48 21 26 1016.9 - 0.0
01/02:00pm 25.0 22.2 19.4 71 3.6 SE 33 39 18 21 1017.1 - 0.0
01/01:30pm 24.6 21.4 19.4 73 3.3 SE 35 41 19 22 1017.5 - 0.0
01/01:00pm 24.8 21.3 19.6 73 3.3 SE 37 44 20 24 1017.9 - 0.0
01/12:30pm 24.3 20.1 18.9 72 3.4 SE 39 44 21 24 1018.4 - 0.0
01/12:00pm 23.9 20.4 18.8 73 3.2 SE 35 41 19 22 1018.9 1018.8 0.0
01/11:30am 23.6 19.8 18.0 71 3.5 SE 35 39 19 21 1019.3 - 0.0
01/11:00am 23.2 20.4 18.1 73 3.2 SSE 30 33 16 18 1019.6 - 0.0
01/10:30am 23.0 19.9 18.3 75 2.9 SSE 32 35 17 19 1020.0 - 0.0
01/10:00am 23.3 20.2 18.8 76 2.8 SE 33 37 18 20 1020.0 - 0.0
01/09:30am 23.2 19.4 18.9 77 2.7 SE 37 44 20 24 1019.8 - 0.0
01/09:24am 23.3 19.3 18.6 75 3.0 SE 37 44 20 24 1019.8 - 0.0
01/09:00am 23.8 21.0 17.3 67 4.0 ESE 28 33 15 18 1019.5 1019.4 2.8
01/08:30am 23.4 21.1 17.6 70 3.6 ESE 26 33 14 18 1019.3 - 2.8
01/08:00am 23.1 19.2 16.4 66 4.1 ESE 32 39 17 21 1019.1 - 2.8
01/07:30am 22.9 19.0 16.4 67 4.0 ESE 32 39 17 21 1018.9 - 2.8
01/07:00am 22.8 19.3 16.6 68 3.8 ESE 30 39 16 21 1018.7 - 2.8
01/06:30am 22.6 18.6 16.2 67 3.9 ESE 32 37 17 20 1018.3 - 2.8
01/06:00am 22.4 19.4 17.8 75 2.9 ESE 30 37 16 20 1018.0 1017.9 2.8
01/05:30am 22.0 20.1 18.6 81 2.1 ESE 26 33 14 18 1017.9 - 2.8
01/05:00am 21.1 17.4 17.5 80 2.2 E 33 44 18 24 1017.6 - 2.8
01/04:30am 20.8 17.9 18.9 89 1.2 E 32 46 17 25 1017.5 - 2.8
01/04:00am 21.0 20.7 19.5 91 1.0 SE 20 32 11 17 1017.6 - 2.4
01/03:30am 20.7 18.4 19.4 92 0.8 SE 30 35 16 19 1017.7 - 2.4
01/03:00am 19.9 16.8 18.4 91 0.9 ESE 32 41 17 22 1017.7 1017.6 2.4
01/02:50am 19.9 15.3 18.0 89 1.2 ESE 39 57 21 31 1017.9 - 2.2
01/02:44am 20.8 15.7 18.7 88 1.3 ESE 43 57 23 31 1018.0 - 1.2
01/02:30am 21.1 20.2 19.0 88 1.3 ESE 22 39 12 21 1017.8 - 1.0
01/02:00am 20.8 19.9 19.1 90 1.1 ESE 22 30 12 16 1018.0 - 1.0
01/01:30am 20.5 16.5 18.6 89 1.2 ESE 37 48 20 26 1018.4 - 0.8
01/01:00am 21.8 17.7 18.2 80 2.2 ESE 37 44 20 24 1018.3 - 0.4
01/12:42am 21.7 16.5 18.7 83 1.9 ESE 44 52 24 28 1018.3 - 0.4
01/12:38am 22.0 18.8 19.4 85 1.7 SSE 35 56 19 30 1018.3 - 0.4
01/12:30am 22.2 19.7 19.7 86 1.6 SE 32 41 17 22 1018.4 - 0.4
01/12:00am 21.6 17.9 19.2 86 1.5 SE 37 46 20 25 1018.6 1018.5 0.4
 
Date/Time
EST
Temp
°C
App
Temp
°C
Dew
Point
Rel
Hum
%
Delta-T
°C
Wind Press
QNH
hPa
Press
MSL
hPa
Rain
since 9 am
mm
Dir
 
Spd
km/h
Gust
km/h
Spd
kts
Gust
kts
31/11:30pm 22.4 19.9 19.8 85 1.7 SSE 32 37 17 20 1018.5 - 0.2
31/11:00pm 22.0 19.2 19.4 85 1.7 S 33 37 18 20 1018.5 - 0.0
31/10:30pm 22.0 17.8 19.0 83 1.9 SSE 39 44 21 24 1018.6 - 0.0
31/10:00pm 22.3 19.0 19.3 83 1.9 SSE 35 39 19 21 1018.6 - 0.0
31/09:30pm 22.3 17.7 18.9 81 2.1 SSE 41 48 22 26 1018.7 - 0.0
31/09:00pm 22.5 19.0 18.7 79 2.4 SE 35 41 19 22 1018.5 1018.4 0.0
31/08:30pm 22.2 17.2 18.8 81 2.1 SE 43 52 23 28 1018.4 - 0.0
31/08:00pm 22.5 17.9 18.9 80 2.3 SE 41 48 22 26 1018.2 - 0.0
31/07:30pm 22.3 17.7 18.9 81 2.1 SE 41 48 22 26 1018.0 - 0.0
31/07:00pm 22.5 17.1 19.3 82 2.0 SE 46 56 25 30 1017.5 - 0.0
31/06:30pm 22.4 16.8 18.8 80 2.3 SE 46 54 25 29 1017.2 - 0.0
31/06:00pm 22.6 17.3 18.6 78 2.5 SE 44 52 24 28 1017.1 1017.0 0.0
31/05:30pm 22.7 18.4 18.7 78 2.5 SE 39 48 21 26 1016.8 - 0.0
31/05:00pm 23.0 18.6 18.5 76 2.8 SE 39 48 21 26 1016.7 - 0.0
31/04:30pm 23.1 18.1 18.0 73 3.2 SE 41 48 22 26 1016.6 - 0.0
31/04:00pm 23.5 19.1 18.4 73 3.2 SE 39 44 21 24 1016.5 - 0.0
31/03:30pm 24.0 20.0 18.4 71 3.5 SE 37 44 20 24 1016.6 - 0.0
31/03:00pm 24.1 18.8 18.1 69 3.8 SE 43 50 23 27 1016.9 1016.8 0.0
31/02:30pm 24.2 19.7 18.2 69 3.8 SE 39 46 21 25 1017.2 - 0.0
31/02:00pm 24.6 20.6 18.5 69 3.9 SE 37 44 20 24 1017.5 - 0.0
31/01:30pm 24.0 19.0 18.9 73 3.2 SE 43 48 23 26 1017.8 - 0.0
31/01:15pm 23.6 17.9 18.5 73 3.2 SE 46 48 25 26 1018.0 - 0.0
31/01:00pm 23.8 21.9 19.3 76 2.9 S 28 35 15 19 1018.1 - 0.0
31/12:30pm 24.3 20.7 18.5 70 3.7 SE 35 41 19 22 1018.6 - 0.0
31/12:00pm 23.2 19.1 18.3 74 3.1 SSE 37 43 20 23 1018.9 1018.8 0.0
31/11:30am 23.3 19.6 17.5 70 3.6 SE 33 43 18 23 1019.4 - 0.0
31/11:27am 23.4 19.3 17.4 69 3.7 SE 35 54 19 29 1019.5 - 0.0
31/11:00am 23.7 19.7 18.6 73 3.2 SE 37 50 20 27 1019.8 - 0.0
31/10:30am 23.5 19.0 18.2 72 3.3 SE 39 44 21 24 1020.0 - 0.0
31/10:00am 22.4 19.7 19.2 82 2.0 SSE 32 39 17 21 1020.3 - 0.0
31/09:30am 21.9 19.5 19.1 84 1.8 SSE 30 32 16 17 1020.3 - 0.0
31/09:00am 21.5 18.9 19.4 88 1.3 SSE 32 39 17 21 1020.2 1020.1 0.8
31/08:30am 21.2 17.9 18.4 84 1.7 SSE 33 41 18 22 1020.1 - 0.6
31/08:00am 21.0 18.7 18.4 85 1.6 S 28 33 15 18 1019.7 - 0.6
31/07:30am 20.8 18.5 18.4 86 1.5 SSE 28 32 15 17 1019.5 - 0.6
31/07:00am 21.6 18.7 18.8 84 1.8 S 32 35 17 19 1019.1 - 0.2
31/06:30am 21.0 18.8 18.6 86 1.5 S 28 32 15 17 1018.8 - 0.2
31/06:00am 21.2 19.0 18.6 85 1.6 SSE 28 33 15 18 1018.7 1018.6 0.2
31/05:30am 21.1 17.9 18.5 85 1.6 SSE 33 41 18 22 1018.4 - 0.2
31/05:00am 21.0 16.5 18.2 84 1.7 SSE 39 43 21 23 1018.4 - 0.0
31/04:30am 20.8 18.2 18.7 88 1.3 S 30 33 16 18 1018.5 - 0.0
31/04:00am 20.2 16.9 18.3 89 1.2 SSE 33 39 18 21 1018.7 - 0.0
31/03:30am 20.3 15.7 18.1 87 1.4 SSE 39 46 21 25 1018.8 - 0.0
31/03:00am 21.4 17.4 18.4 83 1.9 SSE 37 57 20 31 1018.9 1018.8 0.0
31/02:59am 21.5 17.4 18.3 82 2.0 SSE 37 57 20 31 1018.9 - 0.0
31/02:30am 21.5 18.5 17.7 79 2.3 SSE 30 35 16 19 1018.8 - 0.0
31/02:00am 21.3 17.8 17.5 79 2.3 SSE 32 37 17 20 1019.1 - 0.0
31/01:30am 21.4 18.4 17.8 80 2.2 SSE 30 33 16 18 1019.6 - 0.0
31/01:00am 21.5 18.0 17.9 80 2.2 SSE 33 41 18 22 1019.7 - 0.0
31/12:30am 21.9 17.4 18.3 80 2.2 SSE 39 44 21 24 1020.2 - 0.0
31/12:00am 21.9 17.3 17.9 78 2.5 SSE 39 46 21 25 1020.2 1020.1 0.0
 
Date/Time
EST
Temp
°C
App
Temp
°C
Dew
Point
Rel
Hum
%
Delta-T
°C
Wind Press
QNH
hPa
Press
MSL
hPa
Rain
since 9 am
mm
Dir
 
Spd
km/h
Gust
km/h
Spd
kts
Gust
kts
30/11:30pm 22.0 18.0 18.4 80 2.3 SSE 37 43 20 23 1020.1 - 0.0
30/11:00pm 22.0 17.6 17.6 76 2.7 SSE 37 44 20 24 1020.3 - 0.0
30/10:30pm 22.2 17.3 17.3 74 3.0 SSE 39 43 21 23 1020.2 - 0.0
30/10:00pm 22.2 17.3 17.3 74 3.0 SSE 39 43 21 23 1020.2 - 0.0
30/09:30pm 22.4 20.3 20.9 91 1.0 SSE 33 39 18 21 1020.3 - 0.0
30/09:00pm 22.5 19.4 18.3 77 2.6 S 32 35 17 19 1020.4 1020.3 0.0
30/08:30pm 22.5 18.2 17.8 75 2.9 SSE 37 46 20 25 1020.2 - 0.0
30/08:00pm 22.6 17.2 17.9 75 2.9 SE 43 50 23 27 1020.0 - 0.0
30/07:30pm 22.5 17.2 18.1 76 2.7 SE 43 48 23 26 1019.5 - 0.0
30/07:00pm 22.5 17.1 17.8 75 2.9 SE 43 48 23 26 1019.3 - 0.0
30/06:30pm 22.5 19.0 18.7 79 2.4 SE 35 44 19 24 1019.1 - 0.0
30/06:00pm 22.4 17.5 18.2 77 2.6 SE 41 48 22 26 1018.9 1018.8 0.0
30/05:30pm 22.4 17.1 18.2 77 2.6 SE 43 48 23 26 1018.7 - 0.0
30/05:00pm 22.5 17.6 18.1 76 2.7 SE 41 46 22 25 1018.6 - 0.0
30/04:30pm 23.2 19.1 18.3 74 3.1 SE 37 46 20 25 1018.4 - 0.0
30/04:00pm 23.6 19.2 17.6 69 3.7 SE 37 46 20 25 1018.3 - 0.0
30/03:30pm 24.0 19.3 17.7 68 3.9 SE 39 44 21 24 1018.4 - 0.0
30/03:00pm 24.1 19.4 17.8 68 3.9 SE 39 46 21 25 1018.6 1018.5 0.0
30/02:30pm 24.4 19.8 17.9 67 4.1 SE 39 46 21 25 1018.8 - 0.0
30/02:00pm 24.4 18.5 17.1 63 4.5 SE 44 54 24 29 1019.2 - 0.0
30/01:30pm 24.7 19.4 17.2 63 4.7 SE 41 52 22 28 1019.5 - 0.0
30/01:00pm 24.6 19.3 17.3 64 4.5 SE 41 50 22 27 1019.9 - 0.0
30/12:30pm 24.6 19.5 18.5 69 3.9 SE 43 50 23 27 1020.2 - 0.0
30/11:30am 23.7 17.9 17.4 68 3.9 SSE 44 54 24 29 1020.7 - 0.0
30/11:00am 23.6 18.3 18.5 73 3.2 SSE 44 50 24 27 1021.0 - 0.0
30/10:30am 23.3 17.6 18.6 75 3.0 SSE 46 52 25 28 1021.2 - 0.0
30/10:00am 22.9 17.1 18.2 75 2.9 SSE 46 52 25 28 1021.4 - 0.0
30/09:30am 22.8 17.6 18.8 78 2.5 SSE 44 50 24 27 1021.4 - 0.0
30/09:00am 22.0 19.2 19.4 85 1.6 SE 33 - 18 - - 1021.2 0.4
30/08:56am 21.8 18.5 19.2 85 1.6 SSE 35 39 19 21 1021.3 - 0.4
30/08:34am 22.0 17.6 18.4 80 2.3 ESE 39 48 21 26 1021.0 - 0.0
30/08:30am 22.3 18.9 18.9 81 2.1 SSE 35 46 19 25 1021.0 - 0.0
30/08:03am 22.4 17.6 18.4 78 2.5 SSE 41 59 22 32 1020.6 - 0.0
30/08:00am 22.4 17.4 18.8 80 2.3 SSE 43 59 23 32 1020.6 - 0.0
30/07:30am 22.4 17.0 18.4 78 2.5 SSE 44 50 24 27 1020.3 - 0.0
30/07:00am 22.7 17.3 18.3 76 2.8 SSE 44 54 24 29 1020.1 - 0.0
30/06:30am 22.7 16.8 18.0 75 2.9 SE 46 54 25 29 1019.8 - 0.0
30/06:00am 22.8 17.5 18.6 77 2.6 SSE 44 52 24 28 1019.5 1019.4 0.0
30/05:30am 23.0 17.5 19.0 78 2.5 SE 46 54 25 29 1019.3 - 0.0
30/05:00am 22.8 17.6 18.3 76 2.8 SE 43 56 23 30 1019.2 - 0.0
30/04:30am 22.4 16.4 18.8 80 2.3 SE 48 57 26 31 1019.0 - 0.0
30/04:00am 22.8 17.2 18.8 78 2.5 SE 46 54 25 29 1019.0 - 0.0
30/03:30am 22.8 17.8 18.8 78 2.5 SE 43 50 23 27 1019.1 - 0.0
30/03:00am 22.7 17.4 18.5 77 2.6 SE 44 54 24 29 1019.3 1019.2 0.0
30/02:30am 22.6 17.9 18.6 78 2.5 SE 41 50 22 27 1019.6 - 0.0
30/02:00am 22.8 19.1 19.2 80 2.3 SE 37 46 20 25 1020.1 - 0.0
30/01:30am 22.9 17.4 18.9 78 2.5 SE 46 57 25 31 1020.2 - 0.0
30/01:00am 23.0 17.9 19.0 78 2.5 SE 44 54 24 29 1020.4 - 0.0
30/12:30am 23.1 17.7 19.1 78 2.5 SE 46 56 25 30 1020.5 - 0.0
30/12:00am 23.2 17.6 19.6 80 2.3 SE 48 61 26 33 1020.7 1020.6 0.0
 
Date/Time
EST
Temp
°C
App
Temp
°C
Dew
Point
Rel
Hum
%
Delta-T
°C
Wind Press
QNH
hPa
Press
MSL
hPa
Rain
since 9 am
mm
Dir
 
Spd
km/h
Gust
km/h
Spd
kts
Gust
kts
29/11:30pm 23.1 17.5 19.5 80 2.3 SE 48 57 26 31 1021.1 - 0.0
29/11:00pm 23.2 17.3 19.8 81 2.2 SE 50 59 27 32 1021.2 - 0.0
29/10:30pm 23.1 16.2 19.3 79 2.4 SE 54 63 29 34 1021.3 - 0.0
29/10:00pm 22.7 16.7 19.5 82 2.0 SSE 50 61 27 33 1021.1 - 0.0
29/09:30pm 22.4 17.3 19.9 86 1.6 SSE 46 56 25 30 1021.4 - 0.0
29/09:00pm 22.3 16.7 19.5 84 1.8 SSE 48 57 26 31 1021.4 1021.3 0.0
29/08:30pm 22.4 15.6 19.4 83 1.9 SSE 54 63 29 34 1021.2 - 0.0
29/08:00pm 22.3 15.5 19.5 84 1.8 SE 54 61 29 33 1020.9 - 0.0
29/07:30pm 22.8 16.1 19.6 82 2.0 SSE 54 61 29 33 1020.4 - 0.0
29/07:00pm 22.6 16.5 19.4 82 2.0 SSE 50 59 27 32 1019.9 - 0.0
29/06:30pm 22.7 16.0 19.7 83 1.9 SSE 54 61 29 33 1019.7 - 0.0

Other Formats:

Comma delimited format used in spreadsheet applications
http://www.bom.gov.au/fwo/IDQ60801/IDQ60801.94285.axf

JavaScript Object Notation format (JSON) in row-major order
http://www.bom.gov.au/fwo/IDQ60801/IDQ60801.94285.json